sensor_id;sensor_type;location;lat;lon;timestamp;P1;durP1;ratioP1;P2;durP2;ratioP2
7181;SDS011;3632;42.724;23.298;2023-05-28T00:00:47;4.40;;;4.00;;
7181;SDS011;3632;42.724;23.298;2023-05-28T00:03:15;6.03;;;4.60;;
7181;SDS011;3632;42.724;23.298;2023-05-28T00:05:44;5.23;;;4.40;;
7181;SDS011;3632;42.724;23.298;2023-05-28T00:08:11;5.33;;;4.10;;
7181;SDS011;3632;42.724;23.298;2023-05-28T00:10:40;5.50;;;4.17;;
7181;SDS011;3632;42.724;23.298;2023-05-28T00:13:07;5.30;;;4.70;;
7181;SDS011;3632;42.724;23.298;2023-05-28T00:15:34;5.17;;;4.60;;
7181;SDS011;3632;42.724;23.298;2023-05-28T00:18:02;5.50;;;4.07;;
7181;SDS011;3632;42.724;23.298;2023-05-28T00:20:29;4.73;;;4.33;;
7181;SDS011;3632;42.724;23.298;2023-05-28T00:22:56;5.17;;;4.13;;
7181;SDS011;3632;42.724;23.298;2023-05-28T00:25:22;6.97;;;3.97;;
7181;SDS011;3632;42.724;23.298;2023-05-28T00:27:51;4.37;;;3.97;;
7181;SDS011;3632;42.724;23.298;2023-05-28T00:30:17;5.30;;;4.07;;
7181;SDS011;3632;42.724;23.298;2023-05-28T00:32:44;5.73;;;3.73;;
7181;SDS011;3632;42.724;23.298;2023-05-28T00:35:11;5.00;;;4.00;;
7181;SDS011;3632;42.724;23.298;2023-05-28T00:37:38;4.30;;;3.90;;
7181;SDS011;3632;42.724;23.298;2023-05-28T00:40:05;4.10;;;3.37;;
7181;SDS011;3632;42.724;23.298;2023-05-28T00:42:33;4.53;;;3.90;;
7181;SDS011;3632;42.724;23.298;2023-05-28T00:45:02;4.53;;;4.13;;
7181;SDS011;3632;42.724;23.298;2023-05-28T00:47:29;5.30;;;4.50;;
7181;SDS011;3632;42.724;23.298;2023-05-28T00:49:56;4.80;;;4.40;;
7181;SDS011;3632;42.724;23.298;2023-05-28T00:52:25;7.53;;;4.33;;
7181;SDS011;3632;42.724;23.298;2023-05-28T00:54:52;4.40;;;4.00;;
7181;SDS011;3632;42.724;23.298;2023-05-28T00:57:20;4.90;;;4.50;;
7181;SDS011;3632;42.724;23.298;2023-05-28T00:59:48;5.10;;;4.27;;
7181;SDS011;3632;42.724;23.298;2023-05-28T01:02:18;4.63;;;4.17;;
7181;SDS011;3632;42.724;23.298;2023-05-28T01:04:45;7.47;;;4.60;;
7181;SDS011;3632;42.724;23.298;2023-05-28T01:07:12;5.40;;;4.67;;
7181;SDS011;3632;42.724;23.298;2023-05-28T01:09:38;5.47;;;4.30;;
7181;SDS011;3632;42.724;23.298;2023-05-28T01:12:06;5.00;;;4.50;;
7181;SDS011;3632;42.724;23.298;2023-05-28T01:14:35;5.90;;;4.33;;
7181;SDS011;3632;42.724;23.298;2023-05-28T01:17:03;5.17;;;4.43;;
7181;SDS011;3632;42.724;23.298;2023-05-28T01:19:31;4.47;;;4.07;;
7181;SDS011;3632;42.724;23.298;2023-05-28T01:22:00;7.43;;;4.10;;
7181;SDS011;3632;42.724;23.298;2023-05-28T01:24:31;4.70;;;4.30;;
7181;SDS011;3632;42.724;23.298;2023-05-28T01:26:58;5.13;;;4.23;;
7181;SDS011;3632;42.724;23.298;2023-05-28T01:29:26;5.00;;;4.40;;
7181;SDS011;3632;42.724;23.298;2023-05-28T01:31:53;4.53;;;4.00;;
7181;SDS011;3632;42.724;23.298;2023-05-28T01:34:19;5.03;;;4.40;;
7181;SDS011;3632;42.724;23.298;2023-05-28T01:36:48;4.67;;;4.20;;
7181;SDS011;3632;42.724;23.298;2023-05-28T01:39:22;6.00;;;4.27;;
7181;SDS011;3632;42.724;23.298;2023-05-28T01:41:52;9.37;;;8.47;;
7181;SDS011;3632;42.724;23.298;2023-05-28T01:44:20;12.10;;;10.90;;
7181;SDS011;3632;42.724;23.298;2023-05-28T01:46:49;18.37;;;16.17;;
7181;SDS011;3632;42.724;23.298;2023-05-28T01:49:18;21.43;;;19.27;;
7181;SDS011;3632;42.724;23.298;2023-05-28T01:51:45;18.27;;;16.30;;
7181;SDS011;3632;42.724;23.298;2023-05-28T01:54:12;18.13;;;16.37;;
7181;SDS011;3632;42.724;23.298;2023-05-28T01:56:39;15.33;;;13.73;;
7181;SDS011;3632;42.724;23.298;2023-05-28T01:59:07;13.00;;;11.80;;
7181;SDS011;3632;42.724;23.298;2023-05-28T02:01:33;11.97;;;10.77;;
7181;SDS011;3632;42.724;23.298;2023-05-28T02:04:01;6.97;;;6.27;;
7181;SDS011;3632;42.724;23.298;2023-05-28T02:06:29;7.93;;;6.50;;
7181;SDS011;3632;42.724;23.298;2023-05-28T02:08:57;7.70;;;6.60;;
7181;SDS011;3632;42.724;23.298;2023-05-28T02:11:24;6.67;;;6.10;;
7181;SDS011;3632;42.724;23.298;2023-05-28T02:13:51;7.60;;;6.90;;
7181;SDS011;3632;42.724;23.298;2023-05-28T02:16:20;7.67;;;6.93;;
7181;SDS011;3632;42.724;23.298;2023-05-28T02:18:50;8.07;;;7.30;;
7181;SDS011;3632;42.724;23.298;2023-05-28T02:21:17;7.80;;;7.10;;
7181;SDS011;3632;42.724;23.298;2023-05-28T02:23:46;6.80;;;6.17;;
7181;SDS011;3632;42.724;23.298;2023-05-28T02:26:13;7.07;;;5.73;;
7181;SDS011;3632;42.724;23.298;2023-05-28T02:28:40;7.03;;;6.13;;
7181;SDS011;3632;42.724;23.298;2023-05-28T02:31:08;5.73;;;5.20;;
7181;SDS011;3632;42.724;23.298;2023-05-28T02:33:37;5.27;;;4.70;;
7181;SDS011;3632;42.724;23.298;2023-05-28T02:36:04;5.70;;;4.50;;
7181;SDS011;3632;42.724;23.298;2023-05-28T02:38:32;5.40;;;4.90;;
7181;SDS011;3632;42.724;23.298;2023-05-28T02:40:59;5.57;;;5.00;;
7181;SDS011;3632;42.724;23.298;2023-05-28T02:43:26;4.70;;;4.30;;
7181;SDS011;3632;42.724;23.298;2023-05-28T02:45:52;5.00;;;4.50;;
7181;SDS011;3632;42.724;23.298;2023-05-28T02:48:19;4.80;;;4.40;;
7181;SDS011;3632;42.724;23.298;2023-05-28T02:50:47;5.67;;;4.27;;
7181;SDS011;3632;42.724;23.298;2023-05-28T02:53:14;4.63;;;4.13;;
7181;SDS011;3632;42.724;23.298;2023-05-28T02:55:41;4.73;;;4.27;;
7181;SDS011;3632;42.724;23.298;2023-05-28T02:58:08;6.20;;;4.63;;
7181;SDS011;3632;42.724;23.298;2023-05-28T03:00:34;6.07;;;5.03;;
7181;SDS011;3632;42.724;23.298;2023-05-28T03:03:01;6.87;;;4.90;;
7181;SDS011;3632;42.724;23.298;2023-05-28T03:05:28;5.73;;;4.30;;
7181;SDS011;3632;42.724;23.298;2023-05-28T03:07:57;5.57;;;4.43;;
7181;SDS011;3632;42.724;23.298;2023-05-28T03:10:24;6.10;;;4.60;;
7181;SDS011;3632;42.724;23.298;2023-05-28T03:12:51;4.83;;;4.30;;
7181;SDS011;3632;42.724;23.298;2023-05-28T03:15:17;5.60;;;4.67;;
7181;SDS011;3632;42.724;23.298;2023-05-28T03:17:44;5.97;;;4.93;;
7181;SDS011;3632;42.724;23.298;2023-05-28T03:20:11;5.67;;;4.80;;
7181;SDS011;3632;42.724;23.298;2023-05-28T03:22:38;5.50;;;4.23;;
7181;SDS011;3632;42.724;23.298;2023-05-28T03:25:07;6.00;;;4.60;;
7181;SDS011;3632;42.724;23.298;2023-05-28T03:27:35;6.30;;;4.67;;
7181;SDS011;3632;42.724;23.298;2023-05-28T03:30:02;7.43;;;4.53;;
7181;SDS011;3632;42.724;23.298;2023-05-28T03:32:29;5.27;;;4.70;;
7181;SDS011;3632;42.724;23.298;2023-05-28T03:34:56;5.07;;;4.57;;
7181;SDS011;3632;42.724;23.298;2023-05-28T03:37:23;5.50;;;4.63;;
7181;SDS011;3632;42.724;23.298;2023-05-28T03:39:51;5.97;;;5.40;;
7181;SDS011;3632;42.724;23.298;2023-05-28T03:42:19;6.97;;;5.10;;
7181;SDS011;3632;42.724;23.298;2023-05-28T03:44:46;5.07;;;4.57;;
7181;SDS011;3632;42.724;23.298;2023-05-28T03:47:13;5.20;;;4.20;;
7181;SDS011;3632;42.724;23.298;2023-05-28T03:49:39;6.10;;;4.33;;
7181;SDS011;3632;42.724;23.298;2023-05-28T03:52:06;6.13;;;4.57;;
7181;SDS011;3632;42.724;23.298;2023-05-28T03:54:33;4.93;;;4.50;;
7181;SDS011;3632;42.724;23.298;2023-05-28T03:56:59;6.37;;;4.77;;
7181;SDS011;3632;42.724;23.298;2023-05-28T03:59:28;8.73;;;4.47;;
7181;SDS011;3632;42.724;23.298;2023-05-28T04:01:54;5.10;;;4.60;;
7181;SDS011;3632;42.724;23.298;2023-05-28T04:04:21;4.67;;;4.23;;
7181;SDS011;3632;42.724;23.298;2023-05-28T04:06:48;7.67;;;5.10;;
7181;SDS011;3632;42.724;23.298;2023-05-28T04:09:14;5.87;;;5.10;;
7181;SDS011;3632;42.724;23.298;2023-05-28T04:11:41;7.63;;;5.30;;
7181;SDS011;3632;42.724;23.298;2023-05-28T04:14:08;5.73;;;5.20;;
7181;SDS011;3632;42.724;23.298;2023-05-28T04:16:36;6.17;;;5.10;;
7181;SDS011;3632;42.724;23.298;2023-05-28T04:19:03;8.37;;;4.70;;
7181;SDS011;3632;42.724;23.298;2023-05-28T04:21:31;5.43;;;4.90;;
7181;SDS011;3632;42.724;23.298;2023-05-28T04:23:58;7.27;;;4.97;;
7181;SDS011;3632;42.724;23.298;2023-05-28T04:26:25;9.50;;;7.07;;
7181;SDS011;3632;42.724;23.298;2023-05-28T04:28:52;8.90;;;6.13;;
7181;SDS011;3632;42.724;23.298;2023-05-28T04:31:19;5.93;;;5.17;;
7181;SDS011;3632;42.724;23.298;2023-05-28T04:33:48;6.43;;;5.17;;
7181;SDS011;3632;42.724;23.298;2023-05-28T04:36:15;5.67;;;4.90;;
7181;SDS011;3632;42.724;23.298;2023-05-28T04:38:42;5.40;;;4.90;;
7181;SDS011;3632;42.724;23.298;2023-05-28T04:41:08;6.40;;;5.10;;
7181;SDS011;3632;42.724;23.298;2023-05-28T04:43:39;7.77;;;4.97;;
7181;SDS011;3632;42.724;23.298;2023-05-28T04:46:06;7.27;;;5.23;;
7181;SDS011;3632;42.724;23.298;2023-05-28T04:48:33;6.10;;;5.50;;
7181;SDS011;3632;42.724;23.298;2023-05-28T04:51:03;5.70;;;5.17;;
7181;SDS011;3632;42.724;23.298;2023-05-28T04:53:30;8.97;;;5.47;;
7181;SDS011;3632;42.724;23.298;2023-05-28T04:55:58;6.00;;;5.17;;
7181;SDS011;3632;42.724;23.298;2023-05-28T04:58:25;5.33;;;4.50;;
7181;SDS011;3632;42.724;23.298;2023-05-28T05:00:52;6.13;;;5.27;;
7181;SDS011;3632;42.724;23.298;2023-05-28T05:03:20;5.53;;;4.83;;
7181;SDS011;3632;42.724;23.298;2023-05-28T05:05:47;5.30;;;4.80;;
7181;SDS011;3632;42.724;23.298;2023-05-28T05:08:15;6.50;;;4.70;;
7181;SDS011;3632;42.724;23.298;2023-05-28T05:10:42;4.70;;;4.30;;
7181;SDS011;3632;42.724;23.298;2023-05-28T05:13:09;5.10;;;4.47;;
7181;SDS011;3632;42.724;23.298;2023-05-28T05:15:36;5.90;;;5.30;;
7181;SDS011;3632;42.724;23.298;2023-05-28T05:18:02;7.20;;;4.90;;
7181;SDS011;3632;42.724;23.298;2023-05-28T05:20:29;5.87;;;5.00;;
7181;SDS011;3632;42.724;23.298;2023-05-28T05:22:56;7.17;;;6.00;;
7181;SDS011;3632;42.724;23.298;2023-05-28T05:25:24;6.03;;;5.40;;
7181;SDS011;3632;42.724;23.298;2023-05-28T05:27:51;8.43;;;5.43;;
7181;SDS011;3632;42.724;23.298;2023-05-28T05:30:17;5.97;;;5.10;;
7181;SDS011;3632;42.724;23.298;2023-05-28T05:32:44;6.57;;;5.27;;
7181;SDS011;3632;42.724;23.298;2023-05-28T05:35:11;7.03;;;5.40;;
7181;SDS011;3632;42.724;23.298;2023-05-28T05:37:38;6.70;;;5.43;;
7181;SDS011;3632;42.724;23.298;2023-05-28T05:40:05;8.00;;;5.77;;
7181;SDS011;3632;42.724;23.298;2023-05-28T05:42:35;8.20;;;5.87;;
7181;SDS011;3632;42.724;23.298;2023-05-28T05:45:02;8.53;;;6.70;;
7181;SDS011;3632;42.724;23.298;2023-05-28T05:47:30;7.67;;;6.53;;
7181;SDS011;3632;42.724;23.298;2023-05-28T05:49:57;8.33;;;6.27;;
7181;SDS011;3632;42.724;23.298;2023-05-28T05:52:25;7.93;;;6.17;;
7181;SDS011;3632;42.724;23.298;2023-05-28T05:54:51;7.13;;;6.00;;
7181;SDS011;3632;42.724;23.298;2023-05-28T05:57:18;7.33;;;6.60;;
7181;SDS011;3632;42.724;23.298;2023-05-28T05:59:46;10.17;;;6.40;;
7181;SDS011;3632;42.724;23.298;2023-05-28T06:02:13;7.70;;;6.43;;
7181;SDS011;3632;42.724;23.298;2023-05-28T06:04:40;7.50;;;6.47;;
7181;SDS011;3632;42.724;23.298;2023-05-28T06:07:06;7.87;;;7.00;;
7181;SDS011;3632;42.724;23.298;2023-05-28T06:09:33;7.67;;;6.60;;
7181;SDS011;3632;42.724;23.298;2023-05-28T06:12:00;8.10;;;6.70;;
7181;SDS011;3632;42.724;23.298;2023-05-28T06:14:27;10.23;;;7.67;;
7181;SDS011;3632;42.724;23.298;2023-05-28T06:16:55;11.43;;;7.57;;
7181;SDS011;3632;42.724;23.298;2023-05-28T06:19:22;7.73;;;6.53;;
7181;SDS011;3632;42.724;23.298;2023-05-28T06:21:49;7.67;;;6.37;;
7181;SDS011;3632;42.724;23.298;2023-05-28T06:24:16;9.83;;;6.80;;
7181;SDS011;3632;42.724;23.298;2023-05-28T06:26:43;10.83;;;7.00;;
7181;SDS011;3632;42.724;23.298;2023-05-28T06:29:10;8.47;;;6.57;;
7181;SDS011;3632;42.724;23.298;2023-05-28T06:31:37;10.83;;;7.00;;
7181;SDS011;3632;42.724;23.298;2023-05-28T06:34:06;7.50;;;6.70;;
7181;SDS011;3632;42.724;23.298;2023-05-28T06:36:33;8.20;;;7.37;;
7181;SDS011;3632;42.724;23.298;2023-05-28T06:39:00;11.17;;;7.37;;
7181;SDS011;3632;42.724;23.298;2023-05-28T06:41:28;8.50;;;7.53;;
7181;SDS011;3632;42.724;23.298;2023-05-28T06:43:55;10.27;;;7.57;;
7181;SDS011;3632;42.724;23.298;2023-05-28T06:46:21;8.70;;;7.83;;
7181;SDS011;3632;42.724;23.298;2023-05-28T06:48:48;9.60;;;8.00;;
7181;SDS011;3632;42.724;23.298;2023-05-28T06:51:17;9.07;;;8.03;;
7181;SDS011;3632;42.724;23.298;2023-05-28T06:53:43;8.37;;;7.30;;
7181;SDS011;3632;42.724;23.298;2023-05-28T06:56:10;9.87;;;7.97;;
7181;SDS011;3632;42.724;23.298;2023-05-28T06:58:37;9.07;;;8.10;;
7181;SDS011;3632;42.724;23.298;2023-05-28T07:01:04;10.40;;;8.17;;
7181;SDS011;3632;42.724;23.298;2023-05-28T07:03:31;8.67;;;7.77;;
7181;SDS011;3632;42.724;23.298;2023-05-28T07:05:57;9.63;;;8.27;;
7181;SDS011;3632;42.724;23.298;2023-05-28T07:08:26;11.97;;;8.43;;
7181;SDS011;3632;42.724;23.298;2023-05-28T07:10:53;11.07;;;8.10;;
7181;SDS011;3632;42.724;23.298;2023-05-28T07:13:19;8.53;;;7.67;;
7181;SDS011;3632;42.724;23.298;2023-05-28T07:15:46;8.90;;;8.00;;
7181;SDS011;3632;42.724;23.298;2023-05-28T07:18:13;9.93;;;7.80;;
7181;SDS011;3632;42.724;23.298;2023-05-28T07:20:40;10.13;;;7.50;;
7181;SDS011;3632;42.724;23.298;2023-05-28T07:23:06;7.87;;;7.07;;
7181;SDS011;3632;42.724;23.298;2023-05-28T07:25:37;10.13;;;7.80;;
7181;SDS011;3632;42.724;23.298;2023-05-28T07:28:04;8.20;;;7.50;;
7181;SDS011;3632;42.724;23.298;2023-05-28T07:30:31;7.87;;;7.07;;
7181;SDS011;3632;42.724;23.298;2023-05-28T07:32:58;5.93;;;5.43;;
7181;SDS011;3632;42.724;23.298;2023-05-28T07:35:24;4.83;;;4.33;;
7181;SDS011;3632;42.724;23.298;2023-05-28T07:37:51;6.03;;;4.40;;
7181;SDS011;3632;42.724;23.298;2023-05-28T07:40:19;6.30;;;4.33;;
7181;SDS011;3632;42.724;23.298;2023-05-28T07:42:47;5.33;;;4.80;;
7181;SDS011;3632;42.724;23.298;2023-05-28T07:45:14;4.43;;;3.40;;
7181;SDS011;3632;42.724;23.298;2023-05-28T07:47:41;5.10;;;4.10;;
7181;SDS011;3632;42.724;23.298;2023-05-28T07:50:08;4.20;;;3.30;;
7181;SDS011;3632;42.724;23.298;2023-05-28T07:52:35;4.87;;;4.37;;
7181;SDS011;3632;42.724;23.298;2023-05-28T07:55:05;3.73;;;3.40;;
7181;SDS011;3632;42.724;23.298;2023-05-28T07:57:32;2.87;;;2.63;;
7181;SDS011;3632;42.724;23.298;2023-05-28T08:00:00;2.63;;;2.43;;
7181;SDS011;3632;42.724;23.298;2023-05-28T08:02:31;3.33;;;2.73;;
7181;SDS011;3632;42.724;23.298;2023-05-28T08:04:58;3.37;;;2.83;;
7181;SDS011;3632;42.724;23.298;2023-05-28T08:07:26;6.50;;;3.40;;
7181;SDS011;3632;42.724;23.298;2023-05-28T08:09:53;4.90;;;3.20;;
7181;SDS011;3632;42.724;23.298;2023-05-28T08:12:20;4.93;;;3.60;;
7181;SDS011;3632;42.724;23.298;2023-05-28T08:14:47;3.80;;;3.23;;
7181;SDS011;3632;42.724;23.298;2023-05-28T08:17:15;4.70;;;3.70;;
7181;SDS011;3632;42.724;23.298;2023-05-28T08:19:42;6.37;;;5.63;;
7181;SDS011;3632;42.724;23.298;2023-05-28T08:22:09;4.50;;;4.10;;
7181;SDS011;3632;42.724;23.298;2023-05-28T08:24:36;5.73;;;4.37;;
7181;SDS011;3632;42.724;23.298;2023-05-28T08:27:02;3.50;;;3.20;;
7181;SDS011;3632;42.724;23.298;2023-05-28T08:29:30;7.47;;;4.07;;
7181;SDS011;3632;42.724;23.298;2023-05-28T08:31:57;3.70;;;3.40;;
7181;SDS011;3632;42.724;23.298;2023-05-28T08:34:25;6.00;;;3.40;;
7181;SDS011;3632;42.724;23.298;2023-05-28T08:36:52;5.03;;;3.10;;
7181;SDS011;3632;42.724;23.298;2023-05-28T08:39:20;4.70;;;3.17;;
7181;SDS011;3632;42.724;23.298;2023-05-28T08:41:49;3.00;;;2.67;;
7181;SDS011;3632;42.724;23.298;2023-05-28T08:44:16;3.67;;;3.10;;
7181;SDS011;3632;42.724;23.298;2023-05-28T08:46:42;4.27;;;2.73;;
7181;SDS011;3632;42.724;23.298;2023-05-28T08:49:10;19.07;;;17.17;;
7181;SDS011;3632;42.724;23.298;2023-05-28T08:51:39;10.40;;;6.23;;
7181;SDS011;3632;42.724;23.298;2023-05-28T08:54:08;5.30;;;3.53;;
7181;SDS011;3632;42.724;23.298;2023-05-28T08:56:35;3.00;;;2.70;;
7181;SDS011;3632;42.724;23.298;2023-05-28T08:59:04;3.63;;;3.13;;
7181;SDS011;3632;42.724;23.298;2023-05-28T09:01:31;3.57;;;2.80;;
7181;SDS011;3632;42.724;23.298;2023-05-28T09:03:59;3.10;;;2.83;;
7181;SDS011;3632;42.724;23.298;2023-05-28T09:06:29;3.13;;;2.53;;
7181;SDS011;3632;42.724;23.298;2023-05-28T09:08:57;2.93;;;2.73;;
7181;SDS011;3632;42.724;23.298;2023-05-28T09:11:24;5.53;;;3.97;;
7181;SDS011;3632;42.724;23.298;2023-05-28T09:13:51;4.00;;;2.90;;
7181;SDS011;3632;42.724;23.298;2023-05-28T09:16:18;3.77;;;3.13;;
7181;SDS011;3632;42.724;23.298;2023-05-28T09:18:48;3.67;;;2.87;;
7181;SDS011;3632;42.724;23.298;2023-05-28T09:21:16;4.13;;;2.80;;
7181;SDS011;3632;42.724;23.298;2023-05-28T09:23:45;2.87;;;2.63;;
7181;SDS011;3632;42.724;23.298;2023-05-28T09:26:17;4.10;;;3.13;;
7181;SDS011;3632;42.724;23.298;2023-05-28T09:28:45;3.00;;;2.80;;
7181;SDS011;3632;42.724;23.298;2023-05-28T09:31:12;4.00;;;3.17;;
7181;SDS011;3632;42.724;23.298;2023-05-28T09:33:41;4.63;;;3.33;;
7181;SDS011;3632;42.724;23.298;2023-05-28T09:36:08;5.53;;;3.27;;
7181;SDS011;3632;42.724;23.298;2023-05-28T09:38:39;5.53;;;3.57;;
7181;SDS011;3632;42.724;23.298;2023-05-28T09:41:17;3.90;;;3.53;;
7181;SDS011;3632;42.724;23.298;2023-05-28T09:43:45;4.43;;;3.80;;
7181;SDS011;3632;42.724;23.298;2023-05-28T09:46:12;4.37;;;3.83;;
7181;SDS011;3632;42.724;23.298;2023-05-28T09:48:39;4.77;;;3.63;;
7181;SDS011;3632;42.724;23.298;2023-05-28T09:51:06;10.13;;;4.50;;
7181;SDS011;3632;42.724;23.298;2023-05-28T09:53:38;4.27;;;3.67;;
7181;SDS011;3632;42.724;23.298;2023-05-28T09:56:10;4.67;;;4.20;;
7181;SDS011;3632;42.724;23.298;2023-05-28T09:58:39;3.90;;;3.40;;
7181;SDS011;3632;42.724;23.298;2023-05-28T10:01:14;4.17;;;3.70;;
7181;SDS011;3632;42.724;23.298;2023-05-28T10:03:43;5.13;;;3.40;;
7181;SDS011;3632;42.724;23.298;2023-05-28T10:06:14;6.90;;;3.83;;
7181;SDS011;3632;42.724;23.298;2023-05-28T10:08:44;6.20;;;4.77;;
7181;SDS011;3632;42.724;23.298;2023-05-28T10:11:16;5.53;;;5.00;;
7181;SDS011;3632;42.724;23.298;2023-05-28T10:13:48;9.70;;;8.70;;
7181;SDS011;3632;42.724;23.298;2023-05-28T10:16:15;5.93;;;4.30;;
7181;SDS011;3632;42.724;23.298;2023-05-28T10:18:42;5.50;;;4.80;;
7181;SDS011;3632;42.724;23.298;2023-05-28T10:21:10;6.93;;;4.30;;
7181;SDS011;3632;42.724;23.298;2023-05-28T10:23:38;8.03;;;3.77;;
7181;SDS011;3632;42.724;23.298;2023-05-28T10:26:06;6.13;;;4.60;;
7181;SDS011;3632;42.724;23.298;2023-05-28T10:28:34;4.20;;;3.80;;
7181;SDS011;3632;42.724;23.298;2023-05-28T10:31:03;4.53;;;4.03;;
7181;SDS011;3632;42.724;23.298;2023-05-28T10:33:31;4.60;;;4.20;;
7181;SDS011;3632;42.724;23.298;2023-05-28T10:35:58;5.87;;;5.30;;
7181;SDS011;3632;42.724;23.298;2023-05-28T10:38:27;9.83;;;8.43;;
7181;SDS011;3632;42.724;23.298;2023-05-28T10:41:01;4.30;;;3.97;;
7181;SDS011;3632;42.724;23.298;2023-05-28T10:43:44;5.80;;;4.80;;
7181;SDS011;3632;42.724;23.298;2023-05-28T10:46:14;5.57;;;4.97;;
7181;SDS011;3632;42.724;23.298;2023-05-28T10:51:42;8.20;;;5.50;;
7181;SDS011;3632;42.724;23.298;2023-05-28T10:54:20;5.17;;;4.63;;
7181;SDS011;3632;42.724;23.298;2023-05-28T10:57:08;5.30;;;4.37;;
7181;SDS011;3632;42.724;23.298;2023-05-28T10:59:42;5.43;;;5.03;;
7181;SDS011;3632;42.724;23.298;2023-05-28T11:02:12;4.77;;;4.30;;
7181;SDS011;3632;42.724;23.298;2023-05-28T11:04:42;5.20;;;4.70;;
7181;SDS011;3632;42.724;23.298;2023-05-28T11:07:09;6.90;;;5.33;;
7181;SDS011;3632;42.724;23.298;2023-05-28T11:09:38;5.67;;;4.87;;
7181;SDS011;3632;42.724;23.298;2023-05-28T11:12:05;7.57;;;6.87;;
7181;SDS011;3632;42.724;23.298;2023-05-28T11:14:33;7.93;;;5.20;;
7181;SDS011;3632;42.724;23.298;2023-05-28T11:17:06;5.73;;;5.23;;
7181;SDS011;3632;42.724;23.298;2023-05-28T11:19:42;7.07;;;5.20;;
7181;SDS011;3632;42.724;23.298;2023-05-28T11:22:10;6.03;;;4.83;;
7181;SDS011;3632;42.724;23.298;2023-05-28T11:24:50;8.50;;;6.23;;
7181;SDS011;3632;42.724;23.298;2023-05-28T11:27:20;6.60;;;4.50;;
7181;SDS011;3632;42.724;23.298;2023-05-28T11:29:48;6.10;;;4.80;;
7181;SDS011;3632;42.724;23.298;2023-05-28T11:32:18;5.37;;;4.90;;
7181;SDS011;3632;42.724;23.298;2023-05-28T11:34:50;5.13;;;4.43;;
7181;SDS011;3632;42.724;23.298;2023-05-28T11:37:24;8.03;;;5.93;;
7181;SDS011;3632;42.724;23.298;2023-05-28T11:39:53;12.57;;;9.90;;
7181;SDS011;3632;42.724;23.298;2023-05-28T11:42:22;6.27;;;5.77;;
7181;SDS011;3632;42.724;23.298;2023-05-28T11:44:51;6.43;;;5.43;;
7181;SDS011;3632;42.724;23.298;2023-05-28T11:47:19;6.57;;;5.97;;
7181;SDS011;3632;42.724;23.298;2023-05-28T11:49:47;8.20;;;7.43;;
7181;SDS011;3632;42.724;23.298;2023-05-28T11:52:16;6.70;;;5.93;;
7181;SDS011;3632;42.724;23.298;2023-05-28T11:54:45;6.80;;;6.10;;
7181;SDS011;3632;42.724;23.298;2023-05-28T11:57:19;11.57;;;10.43;;
7181;SDS011;3632;42.724;23.298;2023-05-28T11:59:57;7.37;;;5.37;;
7181;SDS011;3632;42.724;23.298;2023-05-28T12:02:41;5.60;;;5.10;;
7181;SDS011;3632;42.724;23.298;2023-05-28T12:08:29;8.50;;;7.23;;
7181;SDS011;3632;42.724;23.298;2023-05-28T12:11:00;7.30;;;6.60;;
7181;SDS011;3632;42.724;23.298;2023-05-28T12:13:31;5.67;;;5.17;;
7181;SDS011;3632;42.724;23.298;2023-05-28T12:16:06;6.27;;;5.50;;
7181;SDS011;3632;42.724;23.298;2023-05-28T12:18:40;5.63;;;4.40;;
7181;SDS011;3632;42.724;23.298;2023-05-28T12:21:12;7.93;;;5.27;;
7181;SDS011;3632;42.724;23.298;2023-05-28T12:23:43;7.47;;;6.13;;
7181;SDS011;3632;42.724;23.298;2023-05-28T12:26:11;7.00;;;5.10;;
7181;SDS011;3632;42.724;23.298;2023-05-28T12:28:41;5.87;;;5.33;;
7181;SDS011;3632;42.724;23.298;2023-05-28T12:31:08;6.00;;;5.40;;
7181;SDS011;3632;42.724;23.298;2023-05-28T12:33:35;8.77;;;6.73;;
7181;SDS011;3632;42.724;23.298;2023-05-28T12:36:03;6.53;;;5.40;;
7181;SDS011;3632;42.724;23.298;2023-05-28T12:38:32;5.90;;;5.40;;
7181;SDS011;3632;42.724;23.298;2023-05-28T12:40:58;5.50;;;5.00;;
7181;SDS011;3632;42.724;23.298;2023-05-28T12:43:25;7.10;;;5.67;;
7181;SDS011;3632;42.724;23.298;2023-05-28T12:45:52;7.60;;;6.90;;
7181;SDS011;3632;42.724;23.298;2023-05-28T12:48:19;9.90;;;6.70;;
7181;SDS011;3632;42.724;23.298;2023-05-28T12:50:45;7.60;;;6.17;;
7181;SDS011;3632;42.724;23.298;2023-05-28T12:53:12;9.13;;;7.47;;
7181;SDS011;3632;42.724;23.298;2023-05-28T12:55:41;5.67;;;5.03;;
7181;SDS011;3632;42.724;23.298;2023-05-28T12:58:07;6.60;;;5.50;;
7181;SDS011;3632;42.724;23.298;2023-05-28T13:00:35;8.13;;;5.80;;
7181;SDS011;3632;42.724;23.298;2023-05-28T13:03:02;13.77;;;12.07;;
7181;SDS011;3632;42.724;23.298;2023-05-28T13:05:29;8.80;;;6.50;;
7181;SDS011;3632;42.724;23.298;2023-05-28T13:07:58;11.30;;;6.00;;
7181;SDS011;3632;42.724;23.298;2023-05-28T13:10:26;10.73;;;6.67;;
7181;SDS011;3632;42.724;23.298;2023-05-28T13:12:55;8.23;;;6.33;;
7181;SDS011;3632;42.724;23.298;2023-05-28T13:15:22;6.80;;;6.20;;
7181;SDS011;3632;42.724;23.298;2023-05-28T13:17:49;9.20;;;5.80;;
7181;SDS011;3632;42.724;23.298;2023-05-28T13:20:18;8.37;;;5.77;;
7181;SDS011;3632;42.724;23.298;2023-05-28T13:22:45;10.10;;;6.10;;
7181;SDS011;3632;42.724;23.298;2023-05-28T13:25:12;6.37;;;5.47;;
7181;SDS011;3632;42.724;23.298;2023-05-28T13:27:42;7.83;;;5.97;;
7181;SDS011;3632;42.724;23.298;2023-05-28T13:30:11;11.83;;;6.17;;
7181;SDS011;3632;42.724;23.298;2023-05-28T13:32:39;11.07;;;8.93;;
7181;SDS011;3632;42.724;23.298;2023-05-28T13:35:06;20.97;;;8.43;;
7181;SDS011;3632;42.724;23.298;2023-05-28T13:37:35;10.27;;;6.60;;
7181;SDS011;3632;42.724;23.298;2023-05-28T13:40:02;13.17;;;11.77;;
7181;SDS011;3632;42.724;23.298;2023-05-28T13:42:33;10.37;;;7.80;;
7181;SDS011;3632;42.724;23.298;2023-05-28T13:45:00;7.07;;;6.37;;
7181;SDS011;3632;42.724;23.298;2023-05-28T13:47:28;7.00;;;6.30;;
7181;SDS011;3632;42.724;23.298;2023-05-28T13:49:57;8.40;;;6.33;;
7181;SDS011;3632;42.724;23.298;2023-05-28T13:52:24;9.83;;;6.00;;
7181;SDS011;3632;42.724;23.298;2023-05-28T13:54:59;7.40;;;5.63;;
7181;SDS011;3632;42.724;23.298;2023-05-28T13:57:26;8.47;;;5.30;;
7181;SDS011;3632;42.724;23.298;2023-05-28T13:59:53;11.20;;;5.33;;
7181;SDS011;3632;42.724;23.298;2023-05-28T14:02:27;7.47;;;5.37;;
7181;SDS011;3632;42.724;23.298;2023-05-28T14:04:58;6.77;;;4.73;;
7181;SDS011;3632;42.724;23.298;2023-05-28T14:07:28;5.10;;;4.60;;
7181;SDS011;3632;42.724;23.298;2023-05-28T14:10:18;7.00;;;5.07;;
7181;SDS011;3632;42.724;23.298;2023-05-28T14:12:47;9.13;;;5.47;;
7181;SDS011;3632;42.724;23.298;2023-05-28T14:15:23;8.10;;;5.37;;
7181;SDS011;3632;42.724;23.298;2023-05-28T14:18:02;5.43;;;4.90;;
7181;SDS011;3632;42.724;23.298;2023-05-28T14:21:01;8.17;;;5.60;;
7181;SDS011;3632;42.724;23.298;2023-05-28T14:27:11;9.20;;;6.93;;
7181;SDS011;3632;42.724;23.298;2023-05-28T14:33:01;5.23;;;4.73;;
7181;SDS011;3632;42.724;23.298;2023-05-28T14:35:29;5.90;;;5.30;;
7181;SDS011;3632;42.724;23.298;2023-05-28T14:37:56;6.43;;;5.10;;
7181;SDS011;3632;42.724;23.298;2023-05-28T14:40:23;7.37;;;5.20;;
7181;SDS011;3632;42.724;23.298;2023-05-28T14:43:05;10.07;;;9.07;;
7181;SDS011;3632;42.724;23.298;2023-05-28T14:45:32;7.20;;;6.50;;
7181;SDS011;3632;42.724;23.298;2023-05-28T14:48:03;6.30;;;5.70;;
7181;SDS011;3632;42.724;23.298;2023-05-28T14:50:30;7.67;;;4.60;;
7181;SDS011;3632;42.724;23.298;2023-05-28T14:52:57;4.80;;;4.40;;
7181;SDS011;3632;42.724;23.298;2023-05-28T14:55:24;6.87;;;4.27;;
7181;SDS011;3632;42.724;23.298;2023-05-28T14:57:51;6.87;;;4.63;;
7181;SDS011;3632;42.724;23.298;2023-05-28T15:00:17;7.73;;;5.07;;
7181;SDS011;3632;42.724;23.298;2023-05-28T15:02:44;5.00;;;4.50;;
7181;SDS011;3632;42.724;23.298;2023-05-28T15:05:12;5.63;;;4.00;;
7181;SDS011;3632;42.724;23.298;2023-05-28T15:07:39;9.17;;;4.23;;
7181;SDS011;3632;42.724;23.298;2023-05-28T15:10:06;5.33;;;4.07;;
7181;SDS011;3632;42.724;23.298;2023-05-28T15:12:34;7.27;;;4.30;;
7181;SDS011;3632;42.724;23.298;2023-05-28T15:15:01;5.53;;;4.33;;
7181;SDS011;3632;42.724;23.298;2023-05-28T15:17:30;5.60;;;4.47;;
7181;SDS011;3632;42.724;23.298;2023-05-28T15:19:58;4.63;;;4.23;;